Salamis Filoxenia — 5BUY2 — position and weather

sailwx.info

Track history (hours):
 
Tides and Currents Weather Stations Pressure Air Temp Water Temp Dewpoint Dewpoint Depression Visibility Wind Speed Wind Dir Waves Ship Positions

Salamis Filoxenia

Last reported at 2016-Jul-22 16:34 UTC. Time now 2016-Jul-23 11:12 UTC.
Position N 34°38' E 032°34'.

Length 157 m; draft 6.2 m.

Type: Passenger vessel. MMSI: 209167000.

Date/timePositionNaut miles runAvg speedWind from/ knotsBaromVisibWave heightAir tempDewpointWater temp
2016-Jul-22 16:34N 34°38' E 032°34'1414.4
2016-Jul-22 15:34N 34°33' E 032°51'1111.0
2016-Jul-22 14:33N 34°37' E 033°04'3 3.2
2016-Jul-22 13:33N 34°39' E 033°01'0 0.0
2016-Jul-22 12:33N 34°39' E 033°01'0 0.0
2016-Jul-22 11:33N 34°39' E 033°01'0 0.0
2016-Jul-22 10:33N 34°39' E 033°01'0 0.0
2016-Jul-22 09:33N 34°39' E 033°01'0 0.0
2016-Jul-22 08:33N 34°39' E 033°01'7 7.3
2016-Jul-22 07:34N 34°32' E 032°59'1414.0
2016-Jul-22 06:33N 34°36' E 032°42'  
2016-Jul-18 14:32N 34°39' E 032°32'1414.7
2016-Jul-18 13:33N 34°34' E 032°49'1212.3
2016-Jul-18 12:34N 34°35' E 033°04'4 4.5
2016-Jul-18 11:33N 34°39' E 033°01'0 0.0
2016-Jul-18 10:34N 34°39' E 033°01'0 0.0
2016-Jul-18 09:34N 34°39' E 033°01'0 0.0
2016-Jul-18 08:34N 34°39' E 033°01'0 0.0
2016-Jul-18 07:34N 34°39' E 033°01'0 0.0
2016-Jul-18 06:34N 34°39' E 033°01'8 7.6
2016-Jul-18 05:33N 34°32' E 032°57'1414.5
2016-Jul-18 04:34N 34°36' E 032°41'36714.7
2016-Jul-17 03:30N 37°14' E 025°51'1815.6
2016-Jul-17 02:19N 37°27' E 025°34'1315.1
2016-Jul-17 01:29N 37°30' E 025°19'3 2.7
2016-Jul-17 00:33N 37°28' E 025°19'0 0.0
2016-Jul-16 23:33N 37°28' E 025°19'0 0.0
2016-Jul-16 22:33N 37°28' E 025°19'0 0.0
2016-Jul-16 21:33N 37°28' E 025°19'0 0.0
2016-Jul-16 20:33N 37°28' E 025°19'0 0.0
2016-Jul-16 19:33N 37°28' E 025°19'0 0.0
2016-Jul-16 18:33N 37°28' E 025°19'0 0.0
2016-Jul-16 17:33N 37°28' E 025°19'0 0.0
2016-Jul-16 16:33N 37°28' E 025°19'0 0.0
2016-Jul-16 15:33N 37°28' E 025°19'3 2.8
2016-Jul-16 14:33N 37°26' E 025°17'2114.8
2016-Jul-16 13:07N 37°14' E 025°40'36415.2
2016-Jul-15 13:11N 34°40' E 032°27'914.8
2016-Jul-15 12:34N 34°37' E 032°38'1514.7
2016-Jul-15 11:34N 34°32' E 032°55'9 8.8
2016-Jul-15 10:34N 34°39' E 033°02'1 0.6
2016-Jul-15 09:34N 34°39' E 033°01'0 0.0
2016-Jul-15 08:34N 34°39' E 033°01'0 0.0
2016-Jul-15 07:34N 34°39' E 033°01'0 0.0
2016-Jul-15 06:34N 34°39' E 033°01'0 0.0
2016-Jul-15 05:34N 34°39' E 033°01'0 0.5
2016-Jul-15 04:33N 34°39' E 033°02'8 8.5
2016-Jul-15 03:33N 34°32' E 032°56'1514.6
2016-Jul-15 02:33N 34°37' E 032°39'7414.8
2016-Jul-14 21:33N 35°10' E 031°18'1515.0
2016-Jul-14 20:33N 35°16' E 031°02'376 7.4
2016-Jul-12 17:33N 37°28' E 023°45'  
Track history (hours):
 
Tides and Currents Weather Stations Pressure Air Temp Water Temp Dewpoint Dewpoint Depression Visibility Wind Speed Wind Dir Waves Ship Positions

Salamis Filoxenia

Last reported at 2016-Jul-22 16:34 UTC. Time now 2016-Jul-23 11:12 UTC.
Position N 34°38' E 032°34'.

Length 157 m; draft 6.2 m.

Type: Passenger vessel. MMSI: 209167000.

Date/timePositionNaut miles runAvg speedWind from/ knotsBaromVisibWave heightAir tempDewpointWater temp
2016-Jul-22 16:34N 34°38' E 032°34'1414.4
2016-Jul-22 15:34N 34°33' E 032°51'1111.0
2016-Jul-22 14:33N 34°37' E 033°04'3 3.2
2016-Jul-22 13:33N 34°39' E 033°01'0 0.0
2016-Jul-22 12:33N 34°39' E 033°01'0 0.0
2016-Jul-22 11:33N 34°39' E 033°01'0 0.0
2016-Jul-22 10:33N 34°39' E 033°01'0 0.0
2016-Jul-22 09:33N 34°39' E 033°01'0 0.0
2016-Jul-22 08:33N 34°39' E 033°01'7 7.3
2016-Jul-22 07:34N 34°32' E 032°59'1414.0
2016-Jul-22 06:33N 34°36' E 032°42'  
2016-Jul-18 14:32N 34°39' E 032°32'1414.7
2016-Jul-18 13:33N 34°34' E 032°49'1212.3
2016-Jul-18 12:34N 34°35' E 033°04'4 4.5
2016-Jul-18 11:33N 34°39' E 033°01'0 0.0
2016-Jul-18 10:34N 34°39' E 033°01'0 0.0
2016-Jul-18 09:34N 34°39' E 033°01'0 0.0
2016-Jul-18 08:34N 34°39' E 033°01'0 0.0
2016-Jul-18 07:34N 34°39' E 033°01'0 0.0
2016-Jul-18 06:34N 34°39' E 033°01'8 7.6
2016-Jul-18 05:33N 34°32' E 032°57'1414.5
2016-Jul-18 04:34N 34°36' E 032°41'36714.7
2016-Jul-17 03:30N 37°14' E 025°51'1815.6
2016-Jul-17 02:19N 37°27' E 025°34'1315.1
2016-Jul-17 01:29N 37°30' E 025°19'3 2.7
2016-Jul-17 00:33N 37°28' E 025°19'0 0.0
2016-Jul-16 23:33N 37°28' E 025°19'0 0.0
2016-Jul-16 22:33N 37°28' E 025°19'0 0.0
2016-Jul-16 21:33N 37°28' E 025°19'0 0.0
2016-Jul-16 20:33N 37°28' E 025°19'0 0.0
2016-Jul-16 19:33N 37°28' E 025°19'0 0.0
2016-Jul-16 18:33N 37°28' E 025°19'0 0.0
2016-Jul-16 17:33N 37°28' E 025°19'0 0.0
2016-Jul-16 16:33N 37°28' E 025°19'0 0.0
2016-Jul-16 15:33N 37°28' E 025°19'3 2.8
2016-Jul-16 14:33N 37°26' E 025°17'2114.8
2016-Jul-16 13:07N 37°14' E 025°40'36415.2
2016-Jul-15 13:11N 34°40' E 032°27'914.8
2016-Jul-15 12:34N 34°37' E 032°38'1514.7
2016-Jul-15 11:34N 34°32' E 032°55'9 8.8
2016-Jul-15 10:34N 34°39' E 033°02'1 0.6
2016-Jul-15 09:34N 34°39' E 033°01'0 0.0
2016-Jul-15 08:34N 34°39' E 033°01'0 0.0
2016-Jul-15 07:34N 34°39' E 033°01'0 0.0
2016-Jul-15 06:34N 34°39' E 033°01'0 0.0
2016-Jul-15 05:34N 34°39' E 033°01'0 0.5
2016-Jul-15 04:33N 34°39' E 033°02'8 8.5
2016-Jul-15 03:33N 34°32' E 032°56'1514.6
2016-Jul-15 02:33N 34°37' E 032°39'7414.8
2016-Jul-14 21:33N 35°10' E 031°18'1515.0
2016-Jul-14 20:33N 35°16' E 031°02'376 7.4
2016-Jul-12 17:33N 37°28' E 023°45'  

Dump ship's entire track history